sensor_id;sensor_type;location;lat;lon;timestamp;temperature;humidity
2050;DHT22;8478;49.208;8.806;2023-03-01T00:01:13;7.70;99.90
2050;DHT22;8478;49.208;8.806;2023-03-01T00:03:39;7.70;99.90
2050;DHT22;8478;49.208;8.806;2023-03-01T00:06:05;7.70;99.90
2050;DHT22;8478;49.208;8.806;2023-03-01T00:08:31;7.70;99.90
2050;DHT22;8478;49.208;8.806;2023-03-01T00:13:38;7.70;99.90
2050;DHT22;8478;49.208;8.806;2023-03-01T00:16:07;7.70;99.90
2050;DHT22;8478;49.208;8.806;2023-03-01T00:18:33;7.70;99.90
2050;DHT22;8478;49.208;8.806;2023-03-01T00:21:00;7.60;99.90
2050;DHT22;8478;49.208;8.806;2023-03-01T00:23:26;7.60;99.90
2050;DHT22;8478;49.208;8.806;2023-03-01T00:25:52;7.60;99.90
2050;DHT22;8478;49.208;8.806;2023-03-01T00:28:18;7.70;99.90
2050;DHT22;8478;49.208;8.806;2023-03-01T00:30:45;7.60;99.90
2050;DHT22;8478;49.208;8.806;2023-03-01T00:33:11;7.60;99.90
2050;DHT22;8478;49.208;8.806;2023-03-01T00:35:36;7.60;99.90
2050;DHT22;8478;49.208;8.806;2023-03-01T00:38:02;7.60;99.90
2050;DHT22;8478;49.208;8.806;2023-03-01T00:40:31;7.60;99.90
2050;DHT22;8478;49.208;8.806;2023-03-01T00:42:57;7.60;99.90
2050;DHT22;8478;49.208;8.806;2023-03-01T00:45:24;7.60;99.90
2050;DHT22;8478;49.208;8.806;2023-03-01T00:47:50;7.60;99.90
2050;DHT22;8478;49.208;8.806;2023-03-01T00:50:17;7.60;99.90
2050;DHT22;8478;49.208;8.806;2023-03-01T00:52:43;7.60;99.90
2050;DHT22;8478;49.208;8.806;2023-03-01T00:55:09;7.60;99.90
2050;DHT22;8478;49.208;8.806;2023-03-01T00:57:35;7.60;99.90
2050;DHT22;8478;49.208;8.806;2023-03-01T01:00:00;7.60;99.90
2050;DHT22;8478;49.208;8.806;2023-03-01T01:02:26;7.60;99.90
2050;DHT22;8478;49.208;8.806;2023-03-01T01:04:52;7.60;99.90
2050;DHT22;8478;49.208;8.806;2023-03-01T01:07:18;7.70;99.90
2050;DHT22;8478;49.208;8.806;2023-03-01T01:09:46;7.60;99.90
2050;DHT22;8478;49.208;8.806;2023-03-01T01:12:12;7.60;99.90
2050;DHT22;8478;49.208;8.806;2023-03-01T01:14:38;7.60;99.90
2050;DHT22;8478;49.208;8.806;2023-03-01T01:17:04;7.60;99.90
2050;DHT22;8478;49.208;8.806;2023-03-01T01:19:30;7.60;99.90
2050;DHT22;8478;49.208;8.806;2023-03-01T01:21:56;7.60;99.90
2050;DHT22;8478;49.208;8.806;2023-03-01T01:24:22;7.60;99.90
2050;DHT22;8478;49.208;8.806;2023-03-01T01:26:47;7.60;99.90
2050;DHT22;8478;49.208;8.806;2023-03-01T01:29:13;7.60;99.90
2050;DHT22;8478;49.208;8.806;2023-03-01T01:31:41;7.60;99.90
2050;DHT22;8478;49.208;8.806;2023-03-01T01:34:09;7.60;99.90
2050;DHT22;8478;49.208;8.806;2023-03-01T01:36:37;7.60;99.90
2050;DHT22;8478;49.208;8.806;2023-03-01T01:39:03;7.60;99.90
2050;DHT22;8478;49.208;8.806;2023-03-01T01:41:29;7.60;99.90
2050;DHT22;8478;49.208;8.806;2023-03-01T01:47:04;7.60;99.90
2050;DHT22;8478;49.208;8.806;2023-03-01T01:52:18;7.60;99.90
2050;DHT22;8478;49.208;8.806;2023-03-01T01:55:11;7.60;99.90
2050;DHT22;8478;49.208;8.806;2023-03-01T01:57:43;7.60;99.90
2050;DHT22;8478;49.208;8.806;2023-03-01T02:00:14;7.60;99.90
2050;DHT22;8478;49.208;8.806;2023-03-01T02:02:41;7.60;99.90
2050;DHT22;8478;49.208;8.806;2023-03-01T02:05:15;7.60;99.90
2050;DHT22;8478;49.208;8.806;2023-03-01T02:07:42;7.60;99.90
2050;DHT22;8478;49.208;8.806;2023-03-01T02:10:09;7.60;99.90
2050;DHT22;8478;49.208;8.806;2023-03-01T02:12:36;7.60;99.90
2050;DHT22;8478;49.208;8.806;2023-03-01T02:15:02;7.60;99.90
2050;DHT22;8478;49.208;8.806;2023-03-01T02:17:28;7.60;99.90
2050;DHT22;8478;49.208;8.806;2023-03-01T02:22:34;7.60;99.90
2050;DHT22;8478;49.208;8.806;2023-03-01T02:28:25;7.60;99.90
2050;DHT22;8478;49.208;8.806;2023-03-01T02:30:50;7.60;99.90
2050;DHT22;8478;49.208;8.806;2023-03-01T02:33:36;7.60;99.90
2050;DHT22;8478;49.208;8.806;2023-03-01T02:36:26;7.60;99.90
2050;DHT22;8478;49.208;8.806;2023-03-01T02:38:57;7.50;99.90
2050;DHT22;8478;49.208;8.806;2023-03-01T02:41:25;7.60;99.90
2050;DHT22;8478;49.208;8.806;2023-03-01T02:43:51;7.50;99.90
2050;DHT22;8478;49.208;8.806;2023-03-01T02:46:22;7.60;99.90
2050;DHT22;8478;49.208;8.806;2023-03-01T02:48:53;7.50;99.90
2050;DHT22;8478;49.208;8.806;2023-03-01T02:52:09;7.50;99.90
2050;DHT22;8478;49.208;8.806;2023-03-01T02:55:06;7.50;99.90
2050;DHT22;8478;49.208;8.806;2023-03-01T02:57:31;7.50;99.90
2050;DHT22;8478;49.208;8.806;2023-03-01T03:00:02;7.60;99.90
2050;DHT22;8478;49.208;8.806;2023-03-01T03:02:32;7.50;99.90
2050;DHT22;8478;49.208;8.806;2023-03-01T03:05:06;7.50;99.90
2050;DHT22;8478;49.208;8.806;2023-03-01T03:07:35;7.50;99.90
2050;DHT22;8478;49.208;8.806;2023-03-01T03:10:03;7.50;99.90
2050;DHT22;8478;49.208;8.806;2023-03-01T03:12:29;7.60;99.90
2050;DHT22;8478;49.208;8.806;2023-03-01T03:14:55;7.50;99.90
2050;DHT22;8478;49.208;8.806;2023-03-01T03:17:20;7.50;99.90
2050;DHT22;8478;49.208;8.806;2023-03-01T03:19:46;7.50;99.90
2050;DHT22;8478;49.208;8.806;2023-03-01T03:22:12;7.50;99.90
2050;DHT22;8478;49.208;8.806;2023-03-01T03:24:39;7.50;99.90
2050;DHT22;8478;49.208;8.806;2023-03-01T03:27:05;7.50;99.90
2050;DHT22;8478;49.208;8.806;2023-03-01T03:29:31;7.50;99.90
2050;DHT22;8478;49.208;8.806;2023-03-01T03:31:57;7.50;99.90
2050;DHT22;8478;49.208;8.806;2023-03-01T03:34:23;7.60;99.90
2050;DHT22;8478;49.208;8.806;2023-03-01T03:36:55;7.50;99.90
2050;DHT22;8478;49.208;8.806;2023-03-01T03:39:26;7.50;99.90
2050;DHT22;8478;49.208;8.806;2023-03-01T03:41:53;7.50;99.90
2050;DHT22;8478;49.208;8.806;2023-03-01T03:44:20;7.50;99.90
2050;DHT22;8478;49.208;8.806;2023-03-01T03:46:45;7.50;99.90
2050;DHT22;8478;49.208;8.806;2023-03-01T03:49:11;7.50;99.90
2050;DHT22;8478;49.208;8.806;2023-03-01T03:51:36;7.50;99.90
2050;DHT22;8478;49.208;8.806;2023-03-01T03:54:02;7.50;99.90
2050;DHT22;8478;49.208;8.806;2023-03-01T03:56:28;7.50;99.90
2050;DHT22;8478;49.208;8.806;2023-03-01T03:58:54;7.50;99.90
2050;DHT22;8478;49.208;8.806;2023-03-01T04:01:19;7.50;99.90
2050;DHT22;8478;49.208;8.806;2023-03-01T04:03:45;7.50;99.90
2050;DHT22;8478;49.208;8.806;2023-03-01T04:06:13;7.50;99.90
2050;DHT22;8478;49.208;8.806;2023-03-01T04:08:39;7.50;99.90
2050;DHT22;8478;49.208;8.806;2023-03-01T04:11:05;7.50;99.90
2050;DHT22;8478;49.208;8.806;2023-03-01T04:13:51;7.50;99.90
2050;DHT22;8478;49.208;8.806;2023-03-01T04:16:17;7.50;99.90
2050;DHT22;8478;49.208;8.806;2023-03-01T04:18:43;7.50;99.90
2050;DHT22;8478;49.208;8.806;2023-03-01T04:21:09;7.50;99.90
2050;DHT22;8478;49.208;8.806;2023-03-01T04:23:35;7.50;99.90
2050;DHT22;8478;49.208;8.806;2023-03-01T04:26:01;7.50;99.90
2050;DHT22;8478;49.208;8.806;2023-03-01T04:28:29;7.50;99.90
2050;DHT22;8478;49.208;8.806;2023-03-01T04:30:57;7.50;99.90
2050;DHT22;8478;49.208;8.806;2023-03-01T04:33:24;7.50;99.90
2050;DHT22;8478;49.208;8.806;2023-03-01T04:35:50;7.50;99.90
2050;DHT22;8478;49.208;8.806;2023-03-01T04:38:19;7.50;99.90
2050;DHT22;8478;49.208;8.806;2023-03-01T04:40:46;7.50;99.90
2050;DHT22;8478;49.208;8.806;2023-03-01T04:43:12;7.50;99.90
2050;DHT22;8478;49.208;8.806;2023-03-01T04:45:41;7.50;99.90
2050;DHT22;8478;49.208;8.806;2023-03-01T04:48:07;7.50;99.90
2050;DHT22;8478;49.208;8.806;2023-03-01T04:50:33;7.50;99.90
2050;DHT22;8478;49.208;8.806;2023-03-01T04:52:58;7.40;99.90
2050;DHT22;8478;49.208;8.806;2023-03-01T04:55:28;7.50;99.90
2050;DHT22;8478;49.208;8.806;2023-03-01T04:57:54;7.50;99.90
2050;DHT22;8478;49.208;8.806;2023-03-01T05:00:20;7.50;99.90
2050;DHT22;8478;49.208;8.806;2023-03-01T05:02:51;7.40;99.90
2050;DHT22;8478;49.208;8.806;2023-03-01T05:05:20;7.40;99.90
2050;DHT22;8478;49.208;8.806;2023-03-01T05:07:46;7.50;99.90
2050;DHT22;8478;49.208;8.806;2023-03-01T05:10:12;7.40;99.90
2050;DHT22;8478;49.208;8.806;2023-03-01T05:12:38;7.50;99.90
2050;DHT22;8478;49.208;8.806;2023-03-01T05:15:04;7.50;99.90
2050;DHT22;8478;49.208;8.806;2023-03-01T05:17:33;7.40;99.90
2050;DHT22;8478;49.208;8.806;2023-03-01T05:19:59;7.40;99.90
2050;DHT22;8478;49.208;8.806;2023-03-01T05:22:26;7.40;99.90
2050;DHT22;8478;49.208;8.806;2023-03-01T05:24:52;7.40;99.90
2050;DHT22;8478;49.208;8.806;2023-03-01T05:27:19;7.40;99.90
2050;DHT22;8478;49.208;8.806;2023-03-01T05:29:47;7.40;99.90
2050;DHT22;8478;49.208;8.806;2023-03-01T05:32:13;7.40;99.90
2050;DHT22;8478;49.208;8.806;2023-03-01T05:34:41;7.40;99.90
2050;DHT22;8478;49.208;8.806;2023-03-01T05:37:07;7.40;99.90
2050;DHT22;8478;49.208;8.806;2023-03-01T05:39:33;7.40;99.90
2050;DHT22;8478;49.208;8.806;2023-03-01T05:42:00;7.40;99.90
2050;DHT22;8478;49.208;8.806;2023-03-01T05:44:28;7.40;99.90
2050;DHT22;8478;49.208;8.806;2023-03-01T05:46:54;7.40;99.90
2050;DHT22;8478;49.208;8.806;2023-03-01T05:49:20;7.40;99.90
2050;DHT22;8478;49.208;8.806;2023-03-01T05:51:50;7.40;99.90
2050;DHT22;8478;49.208;8.806;2023-03-01T05:54:17;7.40;99.90
2050;DHT22;8478;49.208;8.806;2023-03-01T05:56:43;7.40;99.90
2050;DHT22;8478;49.208;8.806;2023-03-01T05:59:09;7.40;99.90
2050;DHT22;8478;49.208;8.806;2023-03-01T06:01:35;7.40;99.90
2050;DHT22;8478;49.208;8.806;2023-03-01T06:04:02;7.40;99.90
2050;DHT22;8478;49.208;8.806;2023-03-01T06:06:27;7.40;99.90
2050;DHT22;8478;49.208;8.806;2023-03-01T06:08:54;7.40;99.90
2050;DHT22;8478;49.208;8.806;2023-03-01T06:11:21;7.40;99.90
2050;DHT22;8478;49.208;8.806;2023-03-01T06:13:47;7.40;99.90
2050;DHT22;8478;49.208;8.806;2023-03-01T06:16:13;7.40;99.90
2050;DHT22;8478;49.208;8.806;2023-03-01T06:18:39;7.40;99.90
2050;DHT22;8478;49.208;8.806;2023-03-01T06:21:06;7.40;99.90
2050;DHT22;8478;49.208;8.806;2023-03-01T06:23:32;7.40;99.90
2050;DHT22;8478;49.208;8.806;2023-03-01T06:25:58;7.40;99.90
2050;DHT22;8478;49.208;8.806;2023-03-01T06:28:24;7.40;99.90
2050;DHT22;8478;49.208;8.806;2023-03-01T06:30:50;7.30;99.90
2050;DHT22;8478;49.208;8.806;2023-03-01T06:33:17;7.40;99.90
2050;DHT22;8478;49.208;8.806;2023-03-01T06:35:48;7.40;99.90
2050;DHT22;8478;49.208;8.806;2023-03-01T06:38:13;7.40;99.90
2050;DHT22;8478;49.208;8.806;2023-03-01T06:40:44;7.30;99.90
2050;DHT22;8478;49.208;8.806;2023-03-01T06:43:10;7.40;99.90
2050;DHT22;8478;49.208;8.806;2023-03-01T06:45:37;7.40;99.90
2050;DHT22;8478;49.208;8.806;2023-03-01T06:48:04;7.40;99.90
2050;DHT22;8478;49.208;8.806;2023-03-01T06:50:30;7.40;99.90
2050;DHT22;8478;49.208;8.806;2023-03-01T06:52:57;7.30;99.90
2050;DHT22;8478;49.208;8.806;2023-03-01T06:55:22;7.40;99.90
2050;DHT22;8478;49.208;8.806;2023-03-01T06:57:48;7.40;99.90
2050;DHT22;8478;49.208;8.806;2023-03-01T07:00:14;7.40;99.90
2050;DHT22;8478;49.208;8.806;2023-03-01T07:02:40;7.40;99.90
2050;DHT22;8478;49.208;8.806;2023-03-01T07:05:06;7.40;99.90
2050;DHT22;8478;49.208;8.806;2023-03-01T07:07:32;7.30;99.90
2050;DHT22;8478;49.208;8.806;2023-03-01T07:09:57;7.40;99.90
2050;DHT22;8478;49.208;8.806;2023-03-01T07:12:23;7.30;99.90
2050;DHT22;8478;49.208;8.806;2023-03-01T07:14:49;7.30;99.90
2050;DHT22;8478;49.208;8.806;2023-03-01T07:17:14;7.40;99.90
2050;DHT22;8478;49.208;8.806;2023-03-01T07:19:40;7.40;99.90
2050;DHT22;8478;49.208;8.806;2023-03-01T07:22:06;7.40;99.90
2050;DHT22;8478;49.208;8.806;2023-03-01T07:24:33;7.40;99.90
2050;DHT22;8478;49.208;8.806;2023-03-01T07:26:59;7.40;99.90
2050;DHT22;8478;49.208;8.806;2023-03-01T07:29:24;7.40;99.90
2050;DHT22;8478;49.208;8.806;2023-03-01T07:31:50;7.40;99.90
2050;DHT22;8478;49.208;8.806;2023-03-01T07:34:16;7.40;99.90
2050;DHT22;8478;49.208;8.806;2023-03-01T07:36:41;7.40;99.90
2050;DHT22;8478;49.208;8.806;2023-03-01T07:39:09;7.40;99.90
2050;DHT22;8478;49.208;8.806;2023-03-01T07:41:35;7.40;99.90
2050;DHT22;8478;49.208;8.806;2023-03-01T07:44:01;7.40;99.90
2050;DHT22;8478;49.208;8.806;2023-03-01T07:46:27;7.40;99.90
2050;DHT22;8478;49.208;8.806;2023-03-01T07:48:52;7.40;99.90
2050;DHT22;8478;49.208;8.806;2023-03-01T07:51:18;7.40;99.90
2050;DHT22;8478;49.208;8.806;2023-03-01T07:53:46;7.40;99.90
2050;DHT22;8478;49.208;8.806;2023-03-01T07:56:14;7.40;99.90
2050;DHT22;8478;49.208;8.806;2023-03-01T07:58:43;7.40;99.90
2050;DHT22;8478;49.208;8.806;2023-03-01T08:01:15;7.30;99.90
2050;DHT22;8478;49.208;8.806;2023-03-01T08:03:41;7.40;99.90
2050;DHT22;8478;49.208;8.806;2023-03-01T08:06:10;7.30;99.90
2050;DHT22;8478;49.208;8.806;2023-03-01T08:08:36;7.30;99.90
2050;DHT22;8478;49.208;8.806;2023-03-01T08:11:04;7.40;99.90
2050;DHT22;8478;49.208;8.806;2023-03-01T08:13:30;7.40;99.90
2050;DHT22;8478;49.208;8.806;2023-03-01T08:16:08;7.40;99.90
2050;DHT22;8478;49.208;8.806;2023-03-01T08:18:34;7.40;99.90
2050;DHT22;8478;49.208;8.806;2023-03-01T08:21:08;7.40;99.90
2050;DHT22;8478;49.208;8.806;2023-03-01T08:23:34;7.30;99.90
2050;DHT22;8478;49.208;8.806;2023-03-01T08:26:07;7.30;99.90
2050;DHT22;8478;49.208;8.806;2023-03-01T08:28:33;7.30;99.90
2050;DHT22;8478;49.208;8.806;2023-03-01T08:30:59;7.30;99.90
2050;DHT22;8478;49.208;8.806;2023-03-01T08:33:25;7.30;99.90
2050;DHT22;8478;49.208;8.806;2023-03-01T08:35:51;7.30;99.90
2050;DHT22;8478;49.208;8.806;2023-03-01T08:38:16;7.30;99.90
2050;DHT22;8478;49.208;8.806;2023-03-01T08:40:42;7.30;99.90
2050;DHT22;8478;49.208;8.806;2023-03-01T08:43:07;7.30;99.90
2050;DHT22;8478;49.208;8.806;2023-03-01T08:45:33;7.30;99.90
2050;DHT22;8478;49.208;8.806;2023-03-01T08:47:59;7.30;99.90
2050;DHT22;8478;49.208;8.806;2023-03-01T08:50:24;7.30;99.90
2050;DHT22;8478;49.208;8.806;2023-03-01T08:52:50;7.30;99.90
2050;DHT22;8478;49.208;8.806;2023-03-01T08:55:16;7.30;99.90
2050;DHT22;8478;49.208;8.806;2023-03-01T08:57:43;7.30;99.90
2050;DHT22;8478;49.208;8.806;2023-03-01T09:00:09;7.30;99.90
2050;DHT22;8478;49.208;8.806;2023-03-01T09:02:37;7.40;99.90
2050;DHT22;8478;49.208;8.806;2023-03-01T09:05:03;7.40;99.90
2050;DHT22;8478;49.208;8.806;2023-03-01T09:07:29;7.40;99.90
2050;DHT22;8478;49.208;8.806;2023-03-01T09:09:54;7.30;99.90
2050;DHT22;8478;49.208;8.806;2023-03-01T09:12:20;7.30;99.90
2050;DHT22;8478;49.208;8.806;2023-03-01T09:14:46;7.30;99.90
2050;DHT22;8478;49.208;8.806;2023-03-01T09:17:12;7.40;99.90
2050;DHT22;8478;49.208;8.806;2023-03-01T09:19:37;7.30;99.90
2050;DHT22;8478;49.208;8.806;2023-03-01T09:22:04;7.40;99.90
2050;DHT22;8478;49.208;8.806;2023-03-01T09:24:30;7.40;99.90
2050;DHT22;8478;49.208;8.806;2023-03-01T09:26:56;7.40;99.90
2050;DHT22;8478;49.208;8.806;2023-03-01T09:29:22;7.40;99.90
2050;DHT22;8478;49.208;8.806;2023-03-01T09:31:48;7.40;99.90
2050;DHT22;8478;49.208;8.806;2023-03-01T09:34:14;7.40;99.90
2050;DHT22;8478;49.208;8.806;2023-03-01T09:36:41;7.40;99.90
2050;DHT22;8478;49.208;8.806;2023-03-01T09:39:07;7.40;99.90
2050;DHT22;8478;49.208;8.806;2023-03-01T09:41:46;7.40;99.90
2050;DHT22;8478;49.208;8.806;2023-03-01T09:44:24;7.40;99.90
2050;DHT22;8478;49.208;8.806;2023-03-01T09:46:51;7.40;99.90
2050;DHT22;8478;49.208;8.806;2023-03-01T09:49:20;7.40;99.90
2050;DHT22;8478;49.208;8.806;2023-03-01T09:52:00;7.40;99.90
2050;DHT22;8478;49.208;8.806;2023-03-01T09:54:28;7.40;99.90
2050;DHT22;8478;49.208;8.806;2023-03-01T09:57:05;7.40;99.90
2050;DHT22;8478;49.208;8.806;2023-03-01T09:59:40;7.40;99.90
2050;DHT22;8478;49.208;8.806;2023-03-01T10:05:29;7.40;99.90
2050;DHT22;8478;49.208;8.806;2023-03-01T10:08:27;7.40;99.90
2050;DHT22;8478;49.208;8.806;2023-03-01T10:10:57;7.40;99.90
2050;DHT22;8478;49.208;8.806;2023-03-01T10:16:16;7.40;99.90
2050;DHT22;8478;49.208;8.806;2023-03-01T10:18:46;7.50;99.90
2050;DHT22;8478;49.208;8.806;2023-03-01T10:21:18;7.50;99.90
2050;DHT22;8478;49.208;8.806;2023-03-01T10:23:46;7.40;99.90
2050;DHT22;8478;49.208;8.806;2023-03-01T10:26:52;7.50;99.90
2050;DHT22;8478;49.208;8.806;2023-03-01T10:32:14;7.40;99.90
2050;DHT22;8478;49.208;8.806;2023-03-01T10:34:40;7.40;99.90
2050;DHT22;8478;49.208;8.806;2023-03-01T10:37:16;7.40;99.90
2050;DHT22;8478;49.208;8.806;2023-03-01T10:42:34;7.50;99.90
2050;DHT22;8478;49.208;8.806;2023-03-01T10:47:45;7.50;99.90
2050;DHT22;8478;49.208;8.806;2023-03-01T10:50:21;7.50;99.90
2050;DHT22;8478;49.208;8.806;2023-03-01T10:53:03;7.50;99.90
2050;DHT22;8478;49.208;8.806;2023-03-01T10:55:38;7.50;99.90
2050;DHT22;8478;49.208;8.806;2023-03-01T10:58:20;7.50;99.90
2050;DHT22;8478;49.208;8.806;2023-03-01T11:00:53;7.50;99.90
2050;DHT22;8478;49.208;8.806;2023-03-01T11:03:28;7.50;99.90
2050;DHT22;8478;49.208;8.806;2023-03-01T11:08:45;7.50;99.90
2050;DHT22;8478;49.208;8.806;2023-03-01T11:14:13;7.50;99.90
2050;DHT22;8478;49.208;8.806;2023-03-01T11:16:42;7.50;99.90
2050;DHT22;8478;49.208;8.806;2023-03-01T11:19:13;7.50;99.90
2050;DHT22;8478;49.208;8.806;2023-03-01T11:24:32;7.50;99.90
2050;DHT22;8478;49.208;8.806;2023-03-01T11:27:02;7.50;99.90
2050;DHT22;8478;49.208;8.806;2023-03-01T11:29:37;7.50;99.90
2050;DHT22;8478;49.208;8.806;2023-03-01T11:32:07;7.60;99.90
2050;DHT22;8478;49.208;8.806;2023-03-01T11:37:33;7.50;99.90
2050;DHT22;8478;49.208;8.806;2023-03-01T11:43:15;7.50;99.90
2050;DHT22;8478;49.208;8.806;2023-03-01T11:46:11;7.50;99.90
2050;DHT22;8478;49.208;8.806;2023-03-01T11:48:52;7.60;99.90
2050;DHT22;8478;49.208;8.806;2023-03-01T11:51:46;7.50;99.90
2050;DHT22;8478;49.208;8.806;2023-03-01T12:00:21;7.50;99.90
2050;DHT22;8478;49.208;8.806;2023-03-01T12:06:06;7.50;99.90
2050;DHT22;8478;49.208;8.806;2023-03-01T12:24:56;7.60;99.90
2050;DHT22;8478;49.208;8.806;2023-03-01T12:30:25;7.60;99.90
2050;DHT22;8478;49.208;8.806;2023-03-01T12:35:48;7.60;99.90
2050;DHT22;8478;49.208;8.806;2023-03-01T12:38:32;7.60;99.90
2050;DHT22;8478;49.208;8.806;2023-03-01T12:44:35;7.60;99.90
2050;DHT22;8478;49.208;8.806;2023-03-01T12:49:47;7.60;99.90
2050;DHT22;8478;49.208;8.806;2023-03-01T12:52:17;7.60;99.90
2050;DHT22;8478;49.208;8.806;2023-03-01T12:54:46;7.60;99.90
2050;DHT22;8478;49.208;8.806;2023-03-01T12:57:46;7.60;99.90
2050;DHT22;8478;49.208;8.806;2023-03-01T13:00:31;7.70;99.90
2050;DHT22;8478;49.208;8.806;2023-03-01T13:11:00;7.60;99.90
2050;DHT22;8478;49.208;8.806;2023-03-01T13:13:27;7.70;99.90
2050;DHT22;8478;49.208;8.806;2023-03-01T13:15:54;7.70;99.90
2050;DHT22;8478;49.208;8.806;2023-03-01T13:20:53;7.70;99.90
2050;DHT22;8478;49.208;8.806;2023-03-01T13:26:06;7.70;99.90
2050;DHT22;8478;49.208;8.806;2023-03-01T13:33:58;7.70;99.90
2050;DHT22;8478;49.208;8.806;2023-03-01T13:39:18;7.70;99.90
2050;DHT22;8478;49.208;8.806;2023-03-01T13:41:53;7.70;99.90
2050;DHT22;8478;49.208;8.806;2023-03-01T13:44:33;7.70;99.90
2050;DHT22;8478;49.208;8.806;2023-03-01T13:49:46;7.70;99.90
2050;DHT22;8478;49.208;8.806;2023-03-01T13:52:44;7.70;99.90
2050;DHT22;8478;49.208;8.806;2023-03-01T13:55:43;7.70;99.90
2050;DHT22;8478;49.208;8.806;2023-03-01T13:58:26;7.70;99.90
2050;DHT22;8478;49.208;8.806;2023-03-01T14:00:58;7.70;99.90
2050;DHT22;8478;49.208;8.806;2023-03-01T14:03:25;7.70;99.90
2050;DHT22;8478;49.208;8.806;2023-03-01T14:06:07;7.70;99.90
2050;DHT22;8478;49.208;8.806;2023-03-01T14:08:35;7.70;99.90
2050;DHT22;8478;49.208;8.806;2023-03-01T14:14:10;7.70;99.90
2050;DHT22;8478;49.208;8.806;2023-03-01T14:19:23;7.80;99.90
2050;DHT22;8478;49.208;8.806;2023-03-01T14:22:27;7.80;99.90
2050;DHT22;8478;49.208;8.806;2023-03-01T14:24:57;7.80;99.90
2050;DHT22;8478;49.208;8.806;2023-03-01T14:27:38;7.80;99.90
2050;DHT22;8478;49.208;8.806;2023-03-01T14:32:38;7.80;99.90
2050;DHT22;8478;49.208;8.806;2023-03-01T14:35:20;7.80;99.90
2050;DHT22;8478;49.208;8.806;2023-03-01T14:37:46;7.80;99.90
2050;DHT22;8478;49.208;8.806;2023-03-01T14:40:21;7.80;99.90
2050;DHT22;8478;49.208;8.806;2023-03-01T14:42:47;7.80;99.90
2050;DHT22;8478;49.208;8.806;2023-03-01T14:45:13;7.80;99.90
2050;DHT22;8478;49.208;8.806;2023-03-01T14:47:39;7.80;99.90
2050;DHT22;8478;49.208;8.806;2023-03-01T14:50:19;7.80;99.90
2050;DHT22;8478;49.208;8.806;2023-03-01T14:52:49;7.80;99.90
2050;DHT22;8478;49.208;8.806;2023-03-01T14:55:18;7.80;99.90
2050;DHT22;8478;49.208;8.806;2023-03-01T14:57:48;7.80;99.90
2050;DHT22;8478;49.208;8.806;2023-03-01T15:00:21;7.80;99.90
2050;DHT22;8478;49.208;8.806;2023-03-01T15:02:49;7.80;99.90
2050;DHT22;8478;49.208;8.806;2023-03-01T15:05:25;7.80;99.90
2050;DHT22;8478;49.208;8.806;2023-03-01T15:07:51;7.80;99.90
2050;DHT22;8478;49.208;8.806;2023-03-01T15:10:37;7.80;99.90
2050;DHT22;8478;49.208;8.806;2023-03-01T15:13:21;7.80;99.90
2050;DHT22;8478;49.208;8.806;2023-03-01T15:15:48;7.80;99.90
2050;DHT22;8478;49.208;8.806;2023-03-01T15:18:25;7.90;99.90
2050;DHT22;8478;49.208;8.806;2023-03-01T15:20:52;7.80;99.90
2050;DHT22;8478;49.208;8.806;2023-03-01T15:23:24;7.90;99.90
2050;DHT22;8478;49.208;8.806;2023-03-01T15:25:52;7.90;99.90
2050;DHT22;8478;49.208;8.806;2023-03-01T15:28:31;7.80;99.90
2050;DHT22;8478;49.208;8.806;2023-03-01T15:31:05;7.80;99.90
2050;DHT22;8478;49.208;8.806;2023-03-01T15:33:34;7.90;99.90
2050;DHT22;8478;49.208;8.806;2023-03-01T15:38:57;7.90;99.90
2050;DHT22;8478;49.208;8.806;2023-03-01T15:41:25;7.90;99.90
2050;DHT22;8478;49.208;8.806;2023-03-01T15:43:52;7.90;99.90
2050;DHT22;8478;49.208;8.806;2023-03-01T15:46:32;7.90;99.90
2050;DHT22;8478;49.208;8.806;2023-03-01T15:49:02;7.90;99.90
2050;DHT22;8478;49.208;8.806;2023-03-01T15:51:34;7.90;99.90
2050;DHT22;8478;49.208;8.806;2023-03-01T15:54:08;7.90;99.90
2050;DHT22;8478;49.208;8.806;2023-03-01T15:56:37;7.90;99.90
2050;DHT22;8478;49.208;8.806;2023-03-01T15:59:03;7.90;99.90
2050;DHT22;8478;49.208;8.806;2023-03-01T16:01:30;7.90;99.90
2050;DHT22;8478;49.208;8.806;2023-03-01T16:03:56;7.90;99.90
2050;DHT22;8478;49.208;8.806;2023-03-01T16:06:23;7.90;99.90
2050;DHT22;8478;49.208;8.806;2023-03-01T16:08:49;7.90;99.90
2050;DHT22;8478;49.208;8.806;2023-03-01T16:11:17;7.90;99.90
2050;DHT22;8478;49.208;8.806;2023-03-01T16:13:43;7.90;99.90
2050;DHT22;8478;49.208;8.806;2023-03-01T16:16:14;7.90;99.90
2050;DHT22;8478;49.208;8.806;2023-03-01T16:18:45;7.90;99.90
2050;DHT22;8478;49.208;8.806;2023-03-01T16:21:22;7.90;99.90
2050;DHT22;8478;49.208;8.806;2023-03-01T16:23:49;7.90;99.90
2050;DHT22;8478;49.208;8.806;2023-03-01T16:26:15;7.90;99.90
2050;DHT22;8478;49.208;8.806;2023-03-01T16:28:42;7.90;99.90
2050;DHT22;8478;49.208;8.806;2023-03-01T16:31:08;7.90;99.90
2050;DHT22;8478;49.208;8.806;2023-03-01T16:33:34;7.90;99.90
2050;DHT22;8478;49.208;8.806;2023-03-01T16:36:11;7.90;99.90
2050;DHT22;8478;49.208;8.806;2023-03-01T16:38:37;7.90;99.90
2050;DHT22;8478;49.208;8.806;2023-03-01T16:41:04;8.00;99.90
2050;DHT22;8478;49.208;8.806;2023-03-01T16:43:31;7.90;99.90
2050;DHT22;8478;49.208;8.806;2023-03-01T16:45:57;7.90;99.90
2050;DHT22;8478;49.208;8.806;2023-03-01T16:48:24;8.00;99.90
2050;DHT22;8478;49.208;8.806;2023-03-01T16:51:00;7.90;99.90
2050;DHT22;8478;49.208;8.806;2023-03-01T16:53:27;7.90;99.90
2050;DHT22;8478;49.208;8.806;2023-03-01T16:55:54;7.90;99.90
2050;DHT22;8478;49.208;8.806;2023-03-01T16:58:20;7.90;99.90
2050;DHT22;8478;49.208;8.806;2023-03-01T17:00:46;8.00;99.90
2050;DHT22;8478;49.208;8.806;2023-03-01T17:03:11;8.00;99.90
2050;DHT22;8478;49.208;8.806;2023-03-01T17:05:40;8.00;99.90
2050;DHT22;8478;49.208;8.806;2023-03-01T17:08:06;8.00;99.90
2050;DHT22;8478;49.208;8.806;2023-03-01T17:10:33;8.00;99.90
2050;DHT22;8478;49.208;8.806;2023-03-01T17:12:58;8.00;99.90
2050;DHT22;8478;49.208;8.806;2023-03-01T17:15:24;8.00;99.90
2050;DHT22;8478;49.208;8.806;2023-03-01T17:17:50;8.00;99.90
2050;DHT22;8478;49.208;8.806;2023-03-01T17:20:16;8.00;99.90
2050;DHT22;8478;49.208;8.806;2023-03-01T17:22:42;8.00;99.90
2050;DHT22;8478;49.208;8.806;2023-03-01T17:25:10;8.00;99.90
2050;DHT22;8478;49.208;8.806;2023-03-01T17:27:39;8.00;99.90
2050;DHT22;8478;49.208;8.806;2023-03-01T17:30:07;8.00;99.90
2050;DHT22;8478;49.208;8.806;2023-03-01T17:32:33;8.00;99.90
2050;DHT22;8478;49.208;8.806;2023-03-01T17:34:59;8.00;99.90
2050;DHT22;8478;49.208;8.806;2023-03-01T17:37:24;8.00;99.90
2050;DHT22;8478;49.208;8.806;2023-03-01T17:39:50;8.00;99.90
2050;DHT22;8478;49.208;8.806;2023-03-01T17:42:16;8.00;99.90
2050;DHT22;8478;49.208;8.806;2023-03-01T17:44:41;8.00;99.90
2050;DHT22;8478;49.208;8.806;2023-03-01T17:47:08;8.00;99.90
2050;DHT22;8478;49.208;8.806;2023-03-01T17:49:34;8.00;99.90
2050;DHT22;8478;49.208;8.806;2023-03-01T17:51:59;8.00;99.90
2050;DHT22;8478;49.208;8.806;2023-03-01T17:54:25;8.00;99.90
2050;DHT22;8478;49.208;8.806;2023-03-01T17:56:51;8.00;99.90
2050;DHT22;8478;49.208;8.806;2023-03-01T17:59:17;8.00;99.90
2050;DHT22;8478;49.208;8.806;2023-03-01T18:01:43;8.00;99.90
2050;DHT22;8478;49.208;8.806;2023-03-01T18:04:10;8.00;99.90
2050;DHT22;8478;49.208;8.806;2023-03-01T18:06:36;7.80;99.90
2050;DHT22;8478;49.208;8.806;2023-03-01T18:09:02;7.60;99.90
2050;DHT22;8478;49.208;8.806;2023-03-01T18:11:28;7.60;99.90
2050;DHT22;8478;49.208;8.806;2023-03-01T18:13:55;7.50;99.90
2050;DHT22;8478;49.208;8.806;2023-03-01T18:16:21;7.50;99.90
2050;DHT22;8478;49.208;8.806;2023-03-01T18:18:51;7.50;99.90
2050;DHT22;8478;49.208;8.806;2023-03-01T18:21:17;7.60;99.90
2050;DHT22;8478;49.208;8.806;2023-03-01T18:23:42;7.70;99.90
2050;DHT22;8478;49.208;8.806;2023-03-01T18:26:10;7.80;99.90